MMZC

General Leobardo C. Ruiz International Airport

Zacatecas, Mexico
TAF MMZC 230426Z 2306/2412 21006KT P6SM BKN030 TX29/2322Z TN08/2312Z FM231800 03010KT P6SM SCT030 SCT220 TEMPO 321/2401 SCT090 BKN220 FM240700 34010KT P6SM SCT080 BKN230
Issued Valid From Valid To
Apr-23 @ 04:26 UTC
(5 hours ago)
Apr-23 @ 06:00 UTC
(3 hours ago)
Apr-24 @ 12:00 UTC
(-1 days ago)
Apr-23 @ 06:00 to Apr-23 @ 18:00
TAF MMZC 230426Z 2306/2412 21006KT P6SM BKN030 TX29/2322Z TN08/2312Z
Wind Visibility Clouds
210° at 6 knots Greater than 6 miles
  • Broken at 3,000' AGL
From Apr-23 @ 18:00 to Apr-24 @ 07:00
FM231800 03010KT P6SM SCT030 SCT220
Wind Visibility Clouds
30° at 10 knots Greater than 6 miles
  • Scattered at 3,000' AGL
  • Scattered at 22,000' AGL
From Apr-24 @ 07:00 to Apr-24 @ 12:00
FM240700 34010KT P6SM SCT080 BKN230
Wind Visibility Clouds
340° at 10 knots Greater than 6 miles
  • Scattered at 8,000' AGL
  • Broken at 23,000' AGL
TAF MMZC 230426Z 2306/2412 21006KT P6SM BKN030 TX29/2322Z TN08/2312Z FM231800 03010KT P6SM SCT030 SCT220 TEMPO 321/2401 SCT090 BKN220 FM240700 34010KT P6SM SCT080 BKN230
Issued Apr-23 @ 04:26 UTC
(5 hours ago)
Valid From Apr-23 @ 06:00 UTC
(3 hours ago)
Valid To Apr-24 @ 12:00 UTC
(-1 days ago)
Apr-23 @ 06:00 - Apr-23 @ 18:00
Wind Visibility
210° at 6 knots Greater than 6 miles
Clouds
  • Broken at 3,000' AGL
From Apr-23 @ 18:00 - Apr-24 @ 07:00
Wind Visibility
30° at 10 knots Greater than 6 miles
Clouds
  • Scattered at 3,000' AGL
  • Scattered at 22,000' AGL
From Apr-24 @ 07:00 - Apr-24 @ 12:00
Wind Visibility
340° at 10 knots Greater than 6 miles
Clouds
  • Scattered at 8,000' AGL
  • Broken at 23,000' AGL